createdAt,value
2022-08-25T00:01:18.255Z,69.49
2022-08-25T00:03:45.565Z,68.77
2022-08-25T00:06:13.693Z,69.47
2022-08-25T00:08:41.326Z,69.27
2022-08-25T00:11:21.629Z,67.74
2022-08-25T00:13:53.348Z,67.91
2022-08-25T00:16:22.679Z,66.32
2022-08-25T00:18:56.791Z,68.14
2022-08-25T00:21:24.971Z,68.59
2022-08-25T00:23:51.672Z,69.25
2022-08-25T00:26:19.503Z,67.73
2022-08-25T00:28:46.292Z,69.00
2022-08-25T00:31:20.558Z,69.82
2022-08-25T00:33:48.971Z,67.89
2022-08-25T00:36:16.412Z,67.78
2022-08-25T00:38:45.038Z,68.78
2022-08-25T00:41:15.579Z,68.70
2022-08-25T00:43:42.655Z,68.83
2022-08-25T00:46:10.715Z,68.14
2022-08-25T00:48:39.095Z,69.55
2022-08-25T00:51:09.780Z,68.29
2022-08-25T00:53:37.508Z,68.96
2022-08-25T00:56:04.385Z,68.70
2022-08-25T00:58:32.645Z,68.46
2022-08-25T01:00:59.946Z,66.44
2022-08-25T01:03:33.082Z,66.27
2022-08-25T01:06:04.560Z,66.77
2022-08-25T01:08:32.610Z,66.83
2022-08-25T01:11:02.830Z,68.99
2022-08-25T01:13:33.899Z,67.11
2022-08-25T01:16:01.448Z,67.58
2022-08-25T01:18:28.227Z,68.73
2022-08-25T01:20:56.537Z,68.02
2022-08-25T01:23:24.247Z,69.08
2022-08-25T01:26:01.501Z,68.20
2022-08-25T01:28:28.259Z,68.76
2022-08-25T01:30:55.111Z,68.87
2022-08-25T01:33:23.353Z,69.40
2022-08-25T01:35:50.211Z,69.13
2022-08-25T01:38:18.567Z,69.93
2022-08-25T01:40:45.309Z,69.76
2022-08-25T01:43:14.766Z,70.59
2022-08-25T01:45:44.514Z,69.10
2022-08-25T01:48:12.198Z,70.74
2022-08-25T01:50:40.120Z,69.93
2022-08-25T01:53:30.229Z,71.36
2022-08-25T01:56:05.426Z,70.48
2022-08-25T01:58:39.411Z,70.38
2022-08-25T02:01:09.133Z,71.02
2022-08-25T02:03:42.045Z,71.47
2022-08-25T02:06:11.795Z,71.81
2022-08-25T02:08:38.679Z,73.02
2022-08-25T02:11:05.867Z,73.51
2022-08-25T02:13:32.748Z,73.39
2022-08-25T02:16:01.264Z,73.80
2022-08-25T02:18:28.108Z,74.03
2022-08-25T02:20:54.751Z,71.84
2022-08-25T02:23:21.452Z,73.52
2022-08-25T02:25:48.126Z,73.29
2022-08-25T02:28:14.928Z,71.70
2022-08-25T02:30:43.082Z,70.62
2022-08-25T02:33:10.544Z,71.33
2022-08-25T02:35:37.823Z,70.66
2022-08-25T02:38:05.641Z,72.64
2022-08-25T02:40:32.603Z,71.50
2022-08-25T02:42:59.380Z,71.33
2022-08-25T02:45:26.065Z,71.30
2022-08-25T02:47:53.584Z,71.13
2022-08-25T02:50:20.923Z,72.00
2022-08-25T02:52:50.564Z,73.50
2022-08-25T02:55:19.092Z,72.28
2022-08-25T02:57:45.730Z,75.27
2022-08-25T03:00:14.721Z,74.50
2022-08-25T03:02:41.990Z,73.18
2022-08-25T03:05:11.769Z,73.02
2022-08-25T03:07:38.731Z,73.84
2022-08-25T03:10:14.378Z,74.41
2022-08-25T03:12:41.741Z,74.71
2022-08-25T03:15:12.800Z,74.74
2022-08-25T03:17:40.105Z,75.35
2022-08-25T03:20:08.123Z,76.25
2022-08-25T03:22:34.923Z,76.21
2022-08-25T03:25:24.015Z,74.73
2022-08-25T03:27:51.979Z,72.94
2022-08-25T03:30:19.548Z,75.38
2022-08-25T03:32:46.584Z,75.41
2022-08-25T03:35:13.565Z,74.64
2022-08-25T03:37:40.874Z,75.91
2022-08-25T03:40:10.247Z,74.21
2022-08-25T03:42:45.250Z,74.12
2022-08-25T03:45:14.657Z,74.23
2022-08-25T03:47:41.420Z,73.82
2022-08-25T03:50:10.782Z,74.32
2022-08-25T03:52:41.806Z,74.28
2022-08-25T03:55:12.097Z,72.71
2022-08-25T03:57:38.905Z,75.11
2022-08-25T04:00:12.351Z,74.42
2022-08-25T04:02:39.938Z,73.21
2022-08-25T04:05:07.610Z,74.98
2022-08-25T04:07:34.402Z,75.16
2022-08-25T04:10:01.156Z,75.51
2022-08-25T04:12:28.009Z,75.92
2022-08-25T04:14:54.676Z,74.67
2022-08-25T04:17:22.058Z,74.26
2022-08-25T04:19:48.933Z,75.62
2022-08-25T04:22:15.714Z,74.87
2022-08-25T04:24:42.763Z,75.23
2022-08-25T04:27:09.530Z,74.49
2022-08-25T04:29:36.230Z,74.65
2022-08-25T04:32:03.294Z,75.26
2022-08-25T04:34:31.433Z,74.10
2022-08-25T04:37:03.786Z,72.77
2022-08-25T04:39:31.238Z,74.83
2022-08-25T04:41:57.953Z,72.10
2022-08-25T04:44:25.477Z,72.23
2022-08-25T04:46:52.352Z,73.19
2022-08-25T04:49:19.277Z,72.92
2022-08-25T04:51:46.049Z,75.14
2022-08-25T04:54:17.070Z,74.28
2022-08-25T04:56:44.706Z,73.88
2022-08-25T04:59:14.292Z,74.24
2022-08-25T05:01:42.885Z,74.60
2022-08-25T05:04:14.471Z,74.80
2022-08-25T05:06:43.601Z,73.14
2022-08-25T05:09:11.887Z,72.31
2022-08-25T05:11:39.025Z,72.45
2022-08-25T05:14:11.483Z,71.23
2022-08-25T05:16:39.150Z,73.45
2022-08-25T05:19:06.100Z,72.75
2022-08-25T05:21:32.919Z,71.65
2022-08-25T05:27:42.286Z,70.31
2022-08-25T05:30:11.511Z,68.53
2022-08-25T05:32:39.009Z,66.99
2022-08-25T05:35:06.753Z,64.78
2022-08-25T05:37:34.106Z,62.41
2022-08-25T05:40:01.160Z,62.99
2022-08-25T05:42:28.464Z,62.33
2022-08-25T05:44:55.584Z,61.47
2022-08-25T05:47:22.409Z,62.00
2022-08-25T05:49:49.071Z,62.59
2022-08-25T05:52:18.233Z,60.16
2022-08-25T05:54:47.000Z,60.95
2022-08-25T05:57:13.936Z,58.68
2022-08-25T05:59:55.805Z,58.56
2022-08-25T06:02:41.037Z,59.85
2022-08-25T06:05:09.444Z,61.18
2022-08-25T06:07:36.254Z,62.02
2022-08-25T06:10:08.043Z,61.30
2022-08-25T06:12:36.225Z,61.68
2022-08-25T06:15:03.958Z,59.87
2022-08-25T06:17:30.836Z,61.17
2022-08-25T06:19:57.576Z,52.05
2022-08-25T06:22:25.884Z,59.40
2022-08-25T06:24:53.503Z,60.59
2022-08-25T06:27:20.283Z,59.30
2022-08-25T06:29:46.919Z,58.40
2022-08-25T06:32:13.917Z,60.29
2022-08-25T06:34:40.520Z,57.46
2022-08-25T06:37:07.415Z,58.87
2022-08-25T06:39:34.703Z,55.05
2022-08-25T06:42:01.442Z,57.90
2022-08-25T06:44:28.502Z,58.66
2022-08-25T06:46:55.592Z,56.78
2022-08-25T06:49:22.481Z,54.84
2022-08-25T06:51:50.282Z,55.30
2022-08-25T06:54:17.037Z,56.49
2022-08-25T06:56:43.734Z,53.65
2022-08-25T06:59:11.350Z,53.61
2022-08-25T07:01:38.506Z,57.11
2022-08-25T07:04:11.809Z,46.40
2022-08-25T07:06:40.625Z,53.42
2022-08-25T07:12:50.541Z,43.48
2022-08-25T07:15:20.409Z,49.30
2022-08-25T07:17:48.274Z,44.74
2022-08-25T07:20:16.783Z,51.82
2022-08-25T07:22:43.939Z,50.60
2022-08-25T07:25:12.140Z,40.17
2022-08-25T07:27:39.255Z,41.64
2022-08-25T07:30:09.459Z,42.30
2022-08-25T07:32:38.075Z,39.40
2022-08-25T07:35:19.571Z,40.48
2022-08-25T07:37:57.024Z,39.16
2022-08-25T07:40:30.453Z,41.19
2022-08-25T07:43:00.092Z,40.61
2022-08-25T07:45:31.807Z,38.63
2022-08-25T07:48:05.797Z,42.37
2022-08-25T07:50:34.239Z,41.43
2022-08-25T07:53:01.124Z,45.46
2022-08-25T07:55:30.357Z,41.39
2022-08-25T07:57:59.857Z,40.63
2022-08-25T08:00:30.031Z,36.96
2022-08-25T08:02:57.827Z,37.87
2022-08-25T08:05:26.182Z,40.19
2022-08-25T08:07:54.268Z,39.25
2022-08-25T08:10:54.018Z,37.73
2022-08-25T08:13:10.587Z,36.16
2022-08-25T08:15:38.052Z,37.16
2022-08-25T08:19:01.322Z,34.92
2022-08-25T08:21:33.242Z,35.50
2022-08-25T08:24:00.688Z,36.38
2022-08-25T08:26:48.254Z,36.23
2022-08-25T08:29:16.426Z,33.81
2022-08-25T08:31:48.298Z,40.38
2022-08-25T08:34:15.994Z,36.26
2022-08-25T08:36:42.532Z,32.47
2022-08-25T08:39:12.303Z,37.53
2022-08-25T08:42:12.057Z,35.25
2022-08-25T08:44:45.080Z,36.27
2022-08-25T08:47:47.636Z,36.47
2022-08-25T08:50:33.804Z,34.09
2022-08-25T08:53:51.914Z,34.02
2022-08-25T08:56:32.177Z,34.14
2022-08-25T08:59:06.105Z,34.88
2022-08-25T09:01:54.214Z,33.09
2022-08-25T09:04:37.538Z,33.86
2022-08-25T09:07:11.902Z,33.77
2022-08-25T09:09:41.970Z,32.07
2022-08-25T09:12:08.663Z,32.09
2022-08-25T09:15:13.416Z,32.50
2022-08-25T09:18:25.885Z,32.89
2022-08-25T09:20:59.822Z,33.12
2022-08-25T09:23:51.638Z,32.78
2022-08-25T09:30:15.551Z,29.37
2022-08-25T09:33:05.304Z,30.59
2022-08-25T09:35:37.536Z,29.23
2022-08-25T09:38:10.311Z,29.49
2022-08-25T09:40:40.664Z,31.59
2022-08-25T09:43:42.882Z,30.12
2022-08-25T09:46:23.897Z,31.06
2022-08-25T09:49:10.839Z,30.80
2022-08-25T09:51:42.973Z,29.89
2022-08-25T09:54:15.407Z,28.97
2022-08-25T09:57:09.282Z,29.88
2022-08-25T09:59:37.478Z,31.21
2022-08-25T10:02:25.942Z,28.77
2022-08-25T10:04:53.474Z,29.72
2022-08-25T10:07:28.143Z,29.60
2022-08-25T10:09:58.872Z,30.20
2022-08-25T10:12:44.171Z,28.90
2022-08-25T10:15:29.539Z,29.27
2022-08-25T10:18:21.094Z,28.75
2022-08-25T10:21:08.728Z,29.47
2022-08-25T10:23:46.425Z,30.34
2022-08-25T10:26:47.724Z,29.54
2022-08-25T10:29:20.468Z,32.66
2022-08-25T10:31:59.493Z,31.94
2022-08-25T10:38:36.403Z,30.63
2022-08-25T10:41:48.182Z,31.59
2022-08-25T10:44:53.588Z,31.11
2022-08-25T10:47:23.992Z,31.00
2022-08-25T10:49:55.669Z,32.04
2022-08-25T10:52:52.547Z,33.77
2022-08-25T10:55:29.561Z,32.33
2022-08-25T10:58:09.933Z,32.58
2022-08-25T11:00:49.731Z,33.56
2022-08-25T11:03:25.644Z,34.43
2022-08-25T11:06:02.109Z,34.58
2022-08-25T11:08:28.707Z,33.84
2022-08-25T11:11:26.620Z,35.13
2022-08-25T11:13:54.330Z,35.35
2022-08-25T11:16:40.346Z,35.05
2022-08-25T11:19:23.945Z,34.08
2022-08-25T11:22:28.261Z,36.28
2022-08-25T11:25:12.679Z,36.00
2022-08-25T11:28:18.712Z,35.97
2022-08-25T11:30:46.416Z,34.39
2022-08-25T11:33:19.504Z,34.08
2022-08-25T11:36:32.621Z,34.86
2022-08-25T11:39:20.753Z,34.03
2022-08-25T11:42:24.656Z,35.32
2022-08-25T11:45:23.329Z,34.53
2022-08-25T11:48:04.744Z,34.04
2022-08-25T11:50:36.812Z,34.75
2022-08-25T11:53:26.674Z,34.25
2022-08-25T11:55:58.856Z,34.54
2022-08-25T11:58:28.388Z,34.54
2022-08-25T12:01:53.913Z,34.26
2022-08-25T12:04:43.951Z,34.34
2022-08-25T12:07:16.164Z,34.01
2022-08-25T12:09:55.565Z,33.78
2022-08-25T12:12:41.891Z,33.64
2022-08-25T12:15:23.845Z,35.02
2022-08-25T12:18:23.050Z,33.03
2022-08-25T12:20:56.489Z,33.75
2022-08-25T12:23:32.340Z,33.86
2022-08-25T12:26:22.021Z,34.21
2022-08-25T12:29:07.672Z,34.00
2022-08-25T12:31:47.816Z,32.63
2022-08-25T12:34:20.426Z,32.80
2022-08-25T12:37:06.177Z,34.21
2022-08-25T12:39:42.952Z,35.58
2022-08-25T12:42:29.866Z,34.65
2022-08-25T12:45:25.605Z,35.22
2022-08-25T12:47:54.835Z,35.27
2022-08-25T12:50:35.504Z,36.11
2022-08-25T12:53:18.614Z,35.40
2022-08-25T12:55:51.797Z,35.17
2022-08-25T12:58:18.498Z,36.47
2022-08-25T13:01:03.261Z,35.54
2022-08-25T13:04:28.670Z,36.31
2022-08-25T13:07:14.089Z,35.63
2022-08-25T13:10:16.040Z,38.01
2022-08-25T13:13:04.307Z,37.36
2022-08-25T13:15:34.400Z,36.93
2022-08-25T13:18:37.995Z,36.45
2022-08-25T13:21:15.012Z,36.98
2022-08-25T13:23:44.943Z,36.13
2022-08-25T13:26:26.540Z,35.73
2022-08-25T13:29:17.808Z,36.49
2022-08-25T13:31:55.288Z,35.77
2022-08-25T13:34:34.303Z,35.54
2022-08-25T13:37:30.535Z,36.43
2022-08-25T13:40:33.455Z,35.33
2022-08-25T13:43:10.625Z,35.47
2022-08-25T13:45:48.300Z,36.03
2022-08-25T13:48:36.751Z,35.63
2022-08-25T13:51:31.663Z,34.66
2022-08-25T13:54:08.527Z,35.43
2022-08-25T13:56:41.595Z,35.49
2022-08-25T13:59:26.889Z,35.43
2022-08-25T14:01:55.352Z,35.74
2022-08-25T14:04:51.754Z,35.44
2022-08-25T14:07:22.583Z,35.10
2022-08-25T14:09:56.934Z,36.04
2022-08-25T14:12:44.904Z,34.97
2022-08-25T14:15:17.963Z,35.37
2022-08-25T14:17:47.818Z,35.36
2022-08-25T14:20:17.346Z,35.80
2022-08-25T14:22:44.123Z,35.46
2022-08-25T14:25:11.499Z,35.81
2022-08-25T14:28:03.504Z,35.11
2022-08-25T14:30:30.968Z,34.78
2022-08-25T14:32:58.625Z,36.01
2022-08-25T14:35:25.373Z,36.01
2022-08-25T14:37:53.377Z,35.52
2022-08-25T14:40:20.204Z,35.85
2022-08-25T14:42:47.815Z,35.77
2022-08-25T14:45:16.190Z,35.10
2022-08-25T14:47:44.684Z,35.80
2022-08-25T14:50:20.138Z,35.53
2022-08-25T14:52:48.322Z,35.82
2022-08-25T14:55:31.831Z,35.51
2022-08-25T14:57:59.525Z,35.99
2022-08-25T15:00:26.583Z,35.30
2022-08-25T15:02:54.966Z,35.88
2022-08-25T15:05:28.262Z,35.96
2022-08-25T15:08:14.931Z,35.80
2022-08-25T15:10:43.306Z,35.89
2022-08-25T15:13:10.749Z,35.90
2022-08-25T15:15:53.016Z,35.36
2022-08-25T15:18:20.959Z,36.20
2022-08-25T15:20:49.840Z,35.88
2022-08-25T15:23:18.734Z,35.99
2022-08-25T15:25:52.820Z,36.15
2022-08-25T15:28:21.923Z,36.55
2022-08-25T15:30:49.543Z,36.83
2022-08-25T15:33:17.616Z,36.80
2022-08-25T15:35:45.087Z,36.70
2022-08-25T15:38:12.543Z,36.68
2022-08-25T15:40:39.810Z,37.15
2022-08-25T15:43:06.941Z,36.96
2022-08-25T15:45:36.315Z,36.66
2022-08-25T15:48:04.433Z,36.22
2022-08-25T15:50:33.921Z,36.51
2022-08-25T15:53:00.595Z,36.60
2022-08-25T15:55:27.511Z,36.76
2022-08-25T15:57:55.624Z,36.66
2022-08-25T16:00:23.786Z,37.34
2022-08-25T16:02:51.068Z,36.62
2022-08-25T16:05:20.458Z,36.79
2022-08-25T16:07:53.811Z,36.81
2022-08-25T16:10:21.076Z,36.81
2022-08-25T16:12:48.557Z,36.81
2022-08-25T16:15:15.754Z,36.89
2022-08-25T16:17:45.985Z,37.25
2022-08-25T16:20:17.243Z,37.08
2022-08-25T16:22:46.655Z,37.77
2022-08-25T16:25:14.421Z,37.02
2022-08-25T16:27:41.065Z,37.15
2022-08-25T16:30:16.785Z,37.81
2022-08-25T16:32:44.966Z,37.40
2022-08-25T16:35:13.025Z,37.56
2022-08-25T16:37:40.358Z,37.59
2022-08-25T16:40:13.442Z,37.49
2022-08-25T16:42:41.440Z,37.71
2022-08-25T16:45:08.258Z,37.30
2022-08-25T16:47:38.024Z,37.39
2022-08-25T16:50:09.236Z,37.77
2022-08-25T16:52:56.319Z,37.85
2022-08-25T16:55:25.765Z,38.22
2022-08-25T16:57:54.267Z,38.38
2022-08-25T17:00:24.885Z,38.32
2022-08-25T17:02:59.227Z,37.93
2022-08-25T17:05:28.198Z,38.81
2022-08-25T17:08:14.522Z,38.14
2022-08-25T17:10:43.581Z,38.57
2022-08-25T17:13:11.458Z,39.10
2022-08-25T17:15:42.236Z,40.03
2022-08-25T17:18:11.166Z,39.73
2022-08-25T17:20:38.316Z,39.03
2022-08-25T17:23:11.951Z,38.96
2022-08-25T17:25:41.240Z,39.41
2022-08-25T17:28:09.442Z,40.88
2022-08-25T17:30:39.416Z,40.77
2022-08-25T17:33:06.616Z,40.34
2022-08-25T17:35:39.070Z,40.56
2022-08-25T17:38:06.282Z,40.62
2022-08-25T17:40:33.979Z,42.09
2022-08-25T17:43:01.666Z,41.47
2022-08-25T17:45:29.503Z,42.88
2022-08-25T17:47:58.105Z,42.31
2022-08-25T17:50:25.729Z,42.50
2022-08-25T17:52:53.502Z,42.28
2022-08-25T17:55:22.913Z,41.67
2022-08-25T17:57:51.082Z,43.20
2022-08-25T18:00:20.210Z,40.98
2022-08-25T18:02:47.961Z,42.28
2022-08-25T18:05:15.450Z,41.20
2022-08-25T18:07:42.484Z,41.70
2022-08-25T18:10:13.763Z,41.34
2022-08-25T18:12:40.345Z,42.79
2022-08-25T18:15:10.585Z,41.75
2022-08-25T18:17:38.279Z,42.82
2022-08-25T18:20:10.164Z,44.41
2022-08-25T18:22:38.641Z,42.14
2022-08-25T18:25:07.051Z,42.38
2022-08-25T18:27:34.598Z,43.30
2022-08-25T18:30:01.985Z,42.67
2022-08-25T18:32:29.391Z,42.24
2022-08-25T18:34:56.601Z,43.33
2022-08-25T18:37:42.509Z,42.47
2022-08-25T18:40:25.409Z,42.44
2022-08-25T18:42:58.450Z,43.98
2022-08-25T18:45:37.877Z,43.08
2022-08-25T18:48:04.595Z,44.14
2022-08-25T18:50:35.891Z,45.38
2022-08-25T18:53:03.579Z,45.61
2022-08-25T18:55:34.091Z,48.41
2022-08-25T18:58:01.199Z,46.67
2022-08-25T19:00:30.643Z,47.06
2022-08-25T19:03:00.324Z,48.30
2022-08-25T19:05:33.552Z,48.14
2022-08-25T19:08:03.425Z,46.97
2022-08-25T19:10:30.472Z,49.51
2022-08-25T19:13:07.954Z,49.24
2022-08-25T19:15:35.655Z,50.87
2022-08-25T19:18:02.235Z,50.21
2022-08-25T19:20:31.722Z,49.95
2022-08-25T19:22:58.365Z,49.31
2022-08-25T19:25:25.574Z,49.21
2022-08-25T19:28:00.420Z,49.34
2022-08-25T19:30:29.626Z,48.71
2022-08-25T19:32:57.420Z,49.42
2022-08-25T19:35:34.185Z,48.35
2022-08-25T19:38:01.133Z,46.85
2022-08-25T19:40:29.520Z,49.62
2022-08-25T19:42:57.901Z,51.12
2022-08-25T19:45:24.773Z,48.88
2022-08-25T19:47:51.803Z,48.80
2022-08-25T19:50:20.339Z,49.32
2022-08-25T19:52:49.887Z,52.65
2022-08-25T19:55:17.764Z,51.14
2022-08-25T19:57:45.964Z,54.49
2022-08-25T20:00:24.265Z,53.89
2022-08-25T20:02:51.190Z,53.50
2022-08-25T20:05:23.603Z,53.75
2022-08-25T20:07:53.867Z,54.96
2022-08-25T20:10:23.577Z,51.45
2022-08-25T20:12:50.229Z,53.81
2022-08-25T20:15:16.997Z,52.56
2022-08-25T20:17:45.100Z,53.03
2022-08-25T20:20:16.457Z,54.61
2022-08-25T20:22:43.054Z,54.20
2022-08-25T20:25:14.491Z,55.36
2022-08-25T20:27:47.721Z,56.27
2022-08-25T20:30:18.177Z,53.38
2022-08-25T20:32:45.830Z,56.35
2022-08-25T20:35:14.275Z,53.10
2022-08-25T20:37:42.986Z,56.45
2022-08-25T20:40:17.170Z,56.35
2022-08-25T20:42:45.546Z,53.54
2022-08-25T20:45:14.757Z,55.23
2022-08-25T20:47:41.917Z,55.10
2022-08-25T20:50:08.848Z,55.82
2022-08-25T20:52:36.457Z,54.70
2022-08-25T20:55:06.872Z,55.25
2022-08-25T20:57:33.896Z,56.71
2022-08-25T21:00:01.025Z,55.62
2022-08-25T21:02:29.446Z,56.17
2022-08-25T21:04:57.026Z,58.21
2022-08-25T21:07:24.242Z,55.85
2022-08-25T21:09:50.942Z,56.76
2022-08-25T21:12:18.304Z,57.08
2022-08-25T21:14:44.965Z,54.60
2022-08-25T21:17:12.934Z,54.66
2022-08-25T21:19:40.047Z,55.57
2022-08-25T21:22:08.787Z,56.95
2022-08-25T21:24:37.864Z,58.90
2022-08-25T21:27:04.553Z,56.36
2022-08-25T21:29:32.626Z,56.48
2022-08-25T21:31:59.683Z,58.97
2022-08-25T21:34:28.219Z,58.61
2022-08-25T21:36:57.774Z,56.47
2022-08-25T21:39:32.107Z,58.75
2022-08-25T21:42:00.394Z,59.11
2022-08-25T21:44:27.479Z,60.45
2022-08-25T21:46:54.824Z,56.37
2022-08-25T21:49:22.475Z,56.79
2022-08-25T21:51:59.262Z,59.07
2022-08-25T21:54:28.587Z,57.27
2022-08-25T21:57:01.922Z,58.14
2022-08-25T21:59:32.065Z,58.02
2022-08-25T22:02:08.038Z,59.54
2022-08-25T22:04:36.551Z,58.72
2022-08-25T22:07:03.262Z,56.88
2022-08-25T22:09:30.636Z,58.35
2022-08-25T22:11:58.639Z,59.19
2022-08-25T22:14:26.379Z,60.10
2022-08-25T22:16:54.656Z,60.77
2022-08-25T22:19:22.766Z,62.61
2022-08-25T22:21:50.400Z,62.75
2022-08-25T22:24:18.307Z,62.30
2022-08-25T22:26:47.531Z,63.24
2022-08-25T22:29:16.649Z,59.55
2022-08-25T22:31:53.028Z,60.81
2022-08-25T22:34:20.131Z,59.82
2022-08-25T22:36:59.517Z,59.18
2022-08-25T22:39:26.943Z,60.26
2022-08-25T22:41:53.915Z,58.25
2022-08-25T22:44:20.492Z,60.79
2022-08-25T22:46:47.076Z,59.29
2022-08-25T22:49:13.902Z,57.91
2022-08-25T22:51:41.016Z,59.87
2022-08-25T22:54:09.603Z,59.98
2022-08-25T22:56:37.718Z,60.39
2022-08-25T22:59:08.439Z,63.45
2022-08-25T23:01:35.113Z,60.96
2022-08-25T23:04:03.250Z,59.00
2022-08-25T23:06:30.688Z,60.87
2022-08-25T23:08:58.513Z,61.25
2022-08-25T23:11:25.522Z,62.16
2022-08-25T23:13:56.142Z,61.58
2022-08-25T23:16:23.093Z,60.10
2022-08-25T23:18:49.850Z,62.59
2022-08-25T23:21:40.831Z,61.23
2022-08-25T23:24:10.795Z,59.44
2022-08-25T23:26:37.900Z,60.08
2022-08-25T23:29:18.345Z,62.27
2022-08-25T23:31:47.167Z,62.16
2022-08-25T23:34:16.182Z,62.34
2022-08-25T23:36:43.874Z,59.48
2022-08-25T23:39:11.340Z,60.60
2022-08-25T23:41:38.396Z,62.54
2022-08-25T23:44:06.266Z,61.30
2022-08-25T23:46:35.743Z,63.45
2022-08-25T23:49:04.408Z,62.77
2022-08-25T23:51:34.191Z,63.20
2022-08-25T23:54:06.007Z,63.77
2022-08-25T23:56:34.375Z,63.73
2022-08-25T23:59:02.355Z,65.61
